Time;durP1;ratioP1;P1;durP2;ratioP2;P2;SDS_P1;SDS_P2;PMS_P1;PMS_P2;Temp;Humidity;BMP_temperature;BMP_pressure;BME280_temperature;BME280_humidity;BME280_pressure;Samples;Min_cycle;Max_cycle;Signal;HPM_P1;HPM_P2
2022/02/04 00:22:19;;;;;;;2.70;1.10;;;17.40;59.70;;;;;;5052983;28;20093;-76
2022/02/04 00:24:36;;;;;;;1.75;1.25;;;17.30;59.50;;;;;;5064455;28;20410;-75
2022/02/04 00:27:09;;;;;;;1.83;1.10;;;17.30;59.50;;;;;;5046675;28;20029;-76
2022/02/04 00:29:52;;;;;;;3.53;1.17;;;17.30;59.50;;;;;;5070987;28;20035;-75
2022/02/04 00:32:20;;;;;;;1.23;1.02;;;17.40;59.60;;;;;;5053721;28;20032;-76
2022/02/04 00:34:52;;;;;;;1.48;1.13;;;17.30;59.50;;;;;;5055994;28;20063;-75
2022/02/04 00:37:34;;;;;;;1.05;0.80;;;17.40;59.60;;;;;;5064305;28;20441;-75
2022/02/04 00:40:10;;;;;;;1.73;1.33;;;17.40;59.50;;;;;;5053187;28;20032;-76
2022/02/04 00:42:35;;;;;;;2.90;1.30;;;17.40;59.50;;;;;;5052164;28;20520;-76
2022/02/04 00:45:16;;;;;;;1.40;1.30;;;17.40;59.50;;;;;;5039291;28;20036;-75
2022/02/04 00:47:47;;;;;;;1.00;0.90;;;17.40;59.40;;;;;;5070079;28;20493;-76
2022/02/04 00:50:26;;;;;;;2.90;1.30;;;17.40;59.40;;;;;;5045306;28;20071;-76
2022/02/04 00:53:06;;;;;;;1.83;1.10;;;17.40;59.30;;;;;;5067455;28;20036;-75
2022/02/04 00:55:47;;;;;;;1.83;1.40;;;17.40;59.20;;;;;;5058555;28;20103;-76
2022/02/04 01:28:38;;;;;;;1.35;0.95;;;17.40;59.30;;;;;;4980712;28;20033;-76
2022/02/04 01:31:04;;;;;;;1.23;1.10;;;17.50;59.30;;;;;;5025478;28;20033;-76
2022/02/04 01:33:30;;;;;;;1.25;1.15;;;17.40;59.20;;;;;;5057347;28;20513;-76
2022/02/04 01:35:56;;;;;;;1.20;1.10;;;17.40;59.20;;;;;;5041820;28;20490;-75
2022/02/04 01:38:28;;;;;;;1.15;0.90;;;17.50;59.20;;;;;;5064093;28;20028;-76
2022/02/04 01:40:54;;;;;;;1.25;0.98;;;17.50;59.30;;;;;;5076147;28;20040;-76
2022/02/04 01:43:22;;;;;;;1.23;1.02;;;17.50;59.20;;;;;;5045491;28;20063;-76
2022/02/04 01:45:49;;;;;;;1.05;0.95;;;17.50;59.20;;;;;;5036811;28;20051;-76
2022/02/04 01:48:14;;;;;;;1.52;1.10;;;17.50;59.20;;;;;;5056619;28;20036;-76
2022/02/04 01:50:40;;;;;;;1.75;1.17;;;17.50;59.20;;;;;;5037497;28;20524;-76
2022/02/04 01:53:05;;;;;;;1.50;1.15;;;17.50;59.10;;;;;;5045195;28;20057;-76
2022/02/04 01:55:31;;;;;;;1.27;1.00;;;17.50;59.00;;;;;;5026808;28;20028;-76
2022/02/04 01:57:56;;;;;;;1.10;0.77;;;17.50;59.00;;;;;;5046320;28;20030;-75
2022/02/04 02:00:22;;;;;;;0.77;0.73;;;17.50;59.00;;;;;;5042168;28;20114;-75
2022/02/04 02:02:49;;;;;;;1.10;1.00;;;17.50;59.00;;;;;;5047100;28;20056;-75
2022/02/04 02:05:14;;;;;;;1.65;1.20;;;17.50;58.90;;;;;;5038499;22;20037;-76
2022/02/04 02:07:44;;;;;;;1.20;1.10;;;17.50;58.90;;;;;;5052688;28;20470;-76
2022/02/04 02:10:13;;;;;;;1.30;1.10;;;17.50;58.90;;;;;;5037914;28;20040;-75
2022/02/04 02:13:27;;;;;;;1.10;1.00;;;17.50;58.90;;;;;;5053003;28;20040;-75
2022/02/04 02:35:00;;;;;;;1.55;0.98;;;17.60;58.40;;;;;;5051579;28;20185;-75
2022/02/04 02:53:59;;;;;;;2.03;0.98;;;17.60;57.90;;;;;;4957368;28;20121;-75
2022/02/04 02:59:09;;;;;;;1.08;0.98;;;17.60;57.70;;;;;;5048620;28;20041;-74
2022/02/04 03:01:35;;;;;;;0.98;0.93;;;17.60;57.70;;;;;;5044283;28;20043;-75
2022/02/04 03:04:05;;;;;;;1.13;1.00;;;17.60;57.60;;;;;;5036294;28;20049;-74
2022/02/04 03:06:31;;;;;;;1.73;1.00;;;17.60;57.60;;;;;;5043395;28;20052;-74
2022/02/04 03:08:56;;;;;;;1.45;0.95;;;17.70;57.60;;;;;;5023651;28;20380;-74
2022/02/04 03:11:22;;;;;;;1.35;1.05;;;17.70;57.50;;;;;;5032120;28;20675;-75
2022/02/04 03:13:47;;;;;;;1.58;1.00;;;17.60;57.50;;;;;;5058760;28;20104;-75
2022/02/04 03:16:16;;;;;;;1.13;1.02;;;17.70;57.50;;;;;;5038841;28;20060;-75
2022/02/04 03:18:45;;;;;;;1.40;1.02;;;17.60;57.40;;;;;;5049109;28;20024;-75
2022/02/04 03:21:16;;;;;;;1.23;1.10;;;17.70;57.40;;;;;;5049450;28;20118;-75
2022/02/04 03:23:51;;;;;;;2.20;0.98;;;17.60;57.50;;;;;;5050087;28;20096;-75
2022/02/04 03:26:27;;;;;;;1.23;1.10;;;17.60;57.30;;;;;;5037299;28;20124;-76
2022/02/04 03:28:53;;;;;;;1.15;0.95;;;17.60;57.30;;;;;;5046704;28;20036;-76
2022/02/04 03:31:18;;;;;;;3.08;0.80;;;17.60;57.30;;;;;;5041260;28;20025;-75
2022/02/04 03:33:46;;;;;;;2.30;1.17;;;17.60;57.40;;;;;;5042154;28;20029;-75
2022/02/04 03:36:11;;;;;;;1.20;1.10;;;17.60;57.30;;;;;;5040743;28;20026;-76
2022/02/04 03:38:37;;;;;;;1.10;0.95;;;17.60;57.30;;;;;;5043543;28;20086;-75
2022/02/04 03:41:02;;;;;;;1.75;0.90;;;17.60;57.30;;;;;;5029126;28;20040;-76
2022/02/04 03:43:28;;;;;;;0.90;0.75;;;17.60;57.20;;;;;;5045621;28;20642;-75
2022/02/04 03:45:53;;;;;;;1.60;0.80;;;17.60;57.20;;;;;;5050445;28;20485;-75
2022/02/04 03:48:19;;;;;;;1.27;1.02;;;17.60;57.10;;;;;;5048740;28;20571;-75
2022/02/04 03:50:44;;;;;;;0.80;0.80;;;17.60;57.10;;;;;;5059683;28;20037;-74
2022/02/04 03:53:11;;;;;;;1.00;0.70;;;17.60;57.10;;;;;;5042505;28;20028;-75
2022/02/04 03:55:37;;;;;;;0.85;0.80;;;17.60;57.10;;;;;;5047206;28;20082;-76
2022/02/04 03:58:02;;;;;;;0.73;0.73;;;17.60;57.10;;;;;;5042541;28;20037;-76
2022/02/04 04:00:28;;;;;;;2.17;0.88;;;17.60;57.00;;;;;;5044049;28;20048;-75
2022/02/04 04:02:53;;;;;;;1.42;1.00;;;17.60;56.90;;;;;;5043931;28;20021;-75
2022/02/04 04:05:19;;;;;;;0.98;0.80;;;17.60;56.90;;;;;;5056283;28;20071;-75
2022/02/04 04:07:48;;;;;;;1.10;1.00;;;17.60;56.90;;;;;;5042006;28;20512;-75
2022/02/04 04:10:19;;;;;;;1.30;0.60;;;17.60;57.00;;;;;;5055091;28;20036;-76
2022/02/04 04:12:45;;;;;;;1.38;0.88;;;17.60;57.00;;;;;;5044165;28;20048;-74
2022/02/04 04:15:10;;;;;;;1.38;0.77;;;17.60;57.30;;;;;;5052438;28;20052;-74
2022/02/04 04:17:44;;;;;;;0.80;0.77;;;17.50;56.90;;;;;;5020601;28;20036;-75
2022/02/04 04:20:14;;;;;;;0.93;0.80;;;17.60;56.90;;;;;;5041301;28;20562;-75
2022/02/04 04:22:40;;;;;;;2.63;0.80;;;17.50;56.80;;;;;;5051603;28;20029;-75
2022/02/04 04:25:06;;;;;;;1.42;0.90;;;17.60;56.80;;;;;;5053860;28;20029;-75
2022/02/04 04:27:31;;;;;;;0.80;0.77;;;17.50;56.80;;;;;;5037177;28;20031;-76
2022/02/04 04:29:57;;;;;;;0.55;0.55;;;17.50;56.80;;;;;;5060940;28;20028;-74
2022/02/04 04:32:22;;;;;;;1.00;0.80;;;17.50;56.80;;;;;;5047904;28;20590;-77
2022/02/04 04:34:48;;;;;;;1.52;0.85;;;17.50;56.90;;;;;;5061599;28;20029;-76
2022/02/04 04:37:13;;;;;;;0.90;0.60;;;17.50;56.80;;;;;;5053401;28;20029;-76
2022/02/04 04:39:54;;;;;;;0.75;0.70;;;17.50;56.80;;;;;;5043907;28;20442;-75
2022/02/04 04:42:30;;;;;;;0.68;0.55;;;17.50;56.80;;;;;;5042347;28;20029;-76
2022/02/04 04:45:18;;;;;;;0.95;0.55;;;17.50;56.80;;;;;;5043020;28;20029;-76
2022/02/04 05:26:20;;;;;;;0.73;0.43;;;17.40;57.30;;;;;;5054417;28;20109;-77
2022/02/04 05:31:17;;;;;;;0.73;0.45;;;17.40;57.20;;;;;;5044543;28;20475;-76
2022/02/04 05:33:43;;;;;;;0.43;0.40;;;17.40;57.20;;;;;;5043265;28;20063;-76
2022/02/04 05:36:10;;;;;;;0.65;0.43;;;17.40;57.20;;;;;;5055420;28;20024;-76
2022/02/04 05:38:36;;;;;;;0.50;0.50;;;17.40;57.10;;;;;;5045464;28;20052;-76
2022/02/04 05:41:03;;;;;;;0.50;0.47;;;17.40;57.70;;;;;;5046740;28;20044;-73
2022/02/04 05:43:31;;;;;;;1.67;0.63;;;17.40;56.90;;;;;;5042007;28;20032;-76
2022/02/04 05:46:04;;;;;;;2.15;0.60;;;17.50;56.90;;;;;;5048959;28;20029;-75
2022/02/04 05:48:32;;;;;;;0.40;0.40;;;17.50;56.90;;;;;;5047131;28;20022;-76
2022/02/04 05:53:50;;;;;;;1.00;0.50;;;17.50;56.90;;;;;;5052020;28;20041;-76
2022/02/04 05:56:29;;;;;;;0.50;0.40;;;17.50;56.90;;;;;;5041641;28;20505;-76
2022/02/04 06:07:33;;;;;;;1.52;0.73;;;17.50;57.20;;;;;;5044924;28;20691;-76
2022/02/04 06:13:09;;;;;;;2.37;1.70;;;17.50;57.50;;;;;;5051475;28;20084;-81
2022/02/04 06:23:43;;;;;;;5.70;1.85;;;17.40;58.00;;;;;;5048192;28;20032;-76
2022/02/04 06:26:08;;;;;;;5.65;1.67;;;17.50;58.10;;;;;;5037556;28;20487;-74
2022/02/04 06:28:35;;;;;;;4.00;1.38;;;17.50;58.10;;;;;;5022995;28;20025;-73
2022/02/04 06:31:01;;;;;;;4.35;2.00;;;17.50;58.20;;;;;;5024191;28;20072;-75
2022/02/04 06:33:26;;;;;;;2.72;1.25;;;17.50;58.10;;;;;;5044398;28;20033;-76
2022/02/04 06:35:52;;;;;;;4.03;1.33;;;17.50;58.20;;;;;;5023583;23;20172;-60
2022/02/04 06:38:17;;;;;;;3.80;1.42;;;17.50;58.10;;;;;;5016694;28;20026;-62
2022/02/04 06:40:43;;;;;;;2.13;1.30;;;17.50;58.10;;;;;;4991430;28;20034;-60
2022/02/04 06:43:09;;;;;;;1.95;1.05;;;17.50;58.00;;;;;;5011600;28;20087;-61
2022/02/04 06:45:37;;;;;;;3.50;1.10;;;17.50;58.00;;;;;;5013097;28;20511;-62
2022/02/04 06:48:02;;;;;;;2.72;1.35;;;17.50;58.00;;;;;;5016666;28;20096;-62
2022/02/04 06:50:28;;;;;;;2.03;1.02;;;17.50;58.00;;;;;;5023130;28;20454;-60
2022/02/04 06:52:53;;;;;;;4.85;1.42;;;17.50;58.00;;;;;;5024929;28;20112;-61
2022/02/04 06:55:19;;;;;;;3.22;1.17;;;17.50;58.20;;;;;;5031853;28;20590;-59
2022/02/04 06:57:46;;;;;;;4.38;1.00;;;17.40;58.60;;;;;;5025702;28;20029;-62
2022/02/04 07:00:14;;;;;;;2.50;1.05;;;17.50;58.60;;;;;;5022436;28;20041;-61
2022/02/04 07:02:40;;;;;;;1.38;0.90;;;17.50;58.30;;;;;;5011405;28;20030;-62
2022/02/04 07:05:10;;;;;;;13.98;2.92;;;17.50;58.00;;;;;;5003231;28;20044;-58
2022/02/04 07:07:38;;;;;;;3.28;1.27;;;17.50;57.70;;;;;;5007504;28;20473;-60
2022/02/04 07:10:21;;;;;;;5.80;1.27;;;17.50;57.40;;;;;;5007149;28;20025;-60
2022/02/04 07:12:52;;;;;;;1.75;1.33;;;17.50;57.30;;;;;;5038347;28;20118;-62
2022/02/04 07:15:47;;;;;;;5.25;1.30;;;17.50;57.10;;;;;;5017436;28;20033;-59
2022/02/04 07:20:51;;;;;;;4.63;1.33;;;17.40;57.20;;;;;;5012535;28;20219;-62
2022/02/04 07:23:17;;;;;;;3.05;1.10;;;17.40;57.30;;;;;;5018704;28;20487;-60
2022/02/04 07:25:42;;;;;;;3.53;1.10;;;17.40;57.30;;;;;;5018658;28;20049;-60
2022/02/04 07:28:08;;;;;;;6.43;1.10;;;17.40;57.40;;;;;;5031099;28;20061;-60
2022/02/04 07:30:34;;;;;;;4.28;1.30;;;17.40;57.30;;;;;;5018662;28;20112;-60
2022/02/04 07:33:15;;;;;;;2.30;1.00;;;17.40;57.40;;;;;;5020814;28;20431;-62
2022/02/04 07:41:09;;;;;;;2.00;0.98;;;17.30;57.10;;;;;;5038866;28;20036;-61
2022/02/04 07:43:35;;;;;;;4.75;1.30;;;17.40;57.30;;;;;;5017558;28;20030;-60
2022/02/04 07:46:00;;;;;;;3.15;1.10;;;17.30;57.20;;;;;;5023798;28;20037;-61
2022/02/04 07:48:26;;;;;;;2.90;1.77;;;17.40;57.20;;;;;;5008888;28;20026;-61
2022/02/04 07:50:51;;;;;;;1.73;1.17;;;17.40;56.90;;;;;;5003412;28;20026;-61
2022/02/04 07:53:17;;;;;;;2.15;1.35;;;17.40;56.70;;;;;;5004221;28;20028;-59
2022/02/04 07:55:43;;;;;;;6.78;1.20;;;17.40;56.80;;;;;;5012954;28;20038;-60
2022/02/04 07:58:10;;;;;;;4.80;1.25;;;17.40;56.90;;;;;;5023299;28;20025;-60
2022/02/04 08:00:38;;;;;;;2.53;1.30;;;17.40;56.80;;;;;;5008217;28;20037;-60
2022/02/04 08:03:13;;;;;;;1.88;1.13;;;17.40;56.70;;;;;;5022282;28;20041;-61
2022/02/04 08:05:39;;;;;;;5.35;1.85;;;17.40;56.60;;;;;;5029568;28;20065;-62
2022/02/04 08:08:21;;;;;;;5.10;1.90;;;17.40;57.30;;;;;;5005644;28;20514;-60
2022/02/04 08:13:47;;;;;;;6.40;2.30;;;17.40;58.60;;;;;;5026771;28;20021;-60
2022/02/04 08:19:23;;;;;;;7.40;2.00;;;17.50;58.90;;;;;;5015647;28;20040;-60
2022/02/04 08:22:04;;;;;;;4.68;1.80;;;17.50;58.80;;;;;;5016327;28;20062;-60
2022/02/04 08:24:41;;;;;;;6.07;2.08;;;17.50;58.80;;;;;;5018527;28;20077;-62
2022/02/04 08:32:50;;;;;;;5.88;2.33;;;17.50;58.60;;;;;;5004508;28;20024;-59
2022/02/04 08:36:02;;;;;;;3.45;1.90;;;17.50;58.60;;;;;;5000303;28;20605;-61
2022/02/04 08:38:49;;;;;;;2.72;1.80;;;17.50;58.60;;;;;;5018461;28;20695;-61
2022/02/04 08:49:44;;;;;;;10.20;1.90;;;17.50;58.60;;;;;;5018481;28;20552;-61
2022/02/04 08:57:12;;;;;;;7.85;2.17;;;17.50;58.40;;;;;;5015348;28;20026;-60
2022/02/04 09:00:45;;;;;;;3.60;1.55;;;17.50;58.40;;;;;;5018511;28;20038;-59
2022/02/04 09:02:38;;;;;;;2.85;1.58;;;17.50;58.30;;;;;;4989874;28;20025;-61
2022/02/04 09:05:08;;;;;;;4.28;1.63;;;17.50;58.40;;;;;;5019061;28;20071;-60
2022/02/04 09:07:49;;;;;;;5.47;1.73;;;17.50;58.30;;;;;;5016991;28;20083;-61
2022/02/04 09:10:16;;;;;;;4.50;1.63;;;17.50;58.30;;;;;;5012186;28;20034;-64
2022/02/04 09:22:50;;;;;;;4.15;1.65;;;17.50;58.10;;;;;;5021211;28;20398;-59
2022/02/04 09:25:16;;;;;;;5.25;1.50;;;17.50;58.10;;;;;;5002755;28;20044;-60
2022/02/04 09:27:42;;;;;;;2.97;1.55;;;17.50;58.10;;;;;;4994904;28;20041;-60
2022/02/04 09:30:10;;;;;;;2.35;1.35;;;17.50;58.10;;;;;;4997614;28;20197;-59
2022/02/04 09:32:36;;;;;;;3.03;1.30;;;17.50;58.30;;;;;;5014651;28;20072;-59
2022/02/04 09:35:03;;;;;;;2.92;1.10;;;17.50;58.70;;;;;;5022905;28;20041;-61
2022/02/04 09:37:30;;;;;;;2.92;1.10;;;17.40;58.70;;;;;;5038254;22;20052;-59
2022/02/04 09:39:55;;;;;;;4.38;1.67;;;17.50;58.80;;;;;;5026373;28;20031;-64
2022/02/04 09:42:21;;;;;;;1.77;1.10;;;17.40;58.90;;;;;;5042934;28;20144;-62
2022/02/04 09:44:46;;;;;;;3.42;1.30;;;17.40;59.00;;;;;;5023168;28;20055;-61
2022/02/04 09:47:18;;;;;;;3.22;1.70;;;17.40;59.30;;;;;;5025632;28;20401;-62
2022/02/04 09:49:47;;;;;;;2.67;1.30;;;17.40;59.50;;;;;;5024751;28;20825;-58
2022/02/04 10:09:03;;;;;;;2.85;1.98;;;17.40;59.40;;;;;;5041654;28;20406;-60
2022/02/04 10:17:15;;;;;;;4.70;1.10;;;17.50;59.20;;;;;;4968830;28;20022;-60
2022/02/04 10:22:10;;;;;;;3.50;1.27;;;17.50;59.10;;;;;;5040833;28;20032;-59
2022/02/04 10:24:36;;;;;;;2.40;1.00;;;17.50;59.10;;;;;;5023652;28;20387;-61
2022/02/04 10:27:16;;;;;;;2.90;1.50;;;17.50;59.60;;;;;;5042100;28;20041;-61
2022/02/04 10:29:43;;;;;;;1.13;0.73;;;17.50;58.90;;;;;;5040738;28;20043;-61
2022/02/04 10:32:08;;;;;;;3.28;1.90;;;17.50;58.90;;;;;;5024072;28;20040;-56
2022/02/04 10:34:37;;;;;;;1.35;1.00;;;17.50;58.80;;;;;;5042134;28;20025;-61
2022/02/04 10:37:14;;;;;;;2.90;1.20;;;17.50;58.80;;;;;;5041941;28;20072;-62
2022/02/04 10:39:54;;;;;;;3.85;0.60;;;17.50;58.60;;;;;;5041476;28;20103;-62
2022/02/04 10:42:56;;;;;;;2.20;0.80;;;17.50;58.60;;;;;;5042310;28;20045;-59
2022/02/04 10:45:30;;;;;;;2.75;1.05;;;17.50;58.60;;;;;;5042096;28;20490;-58
2022/02/04 11:04:01;;;;;;;0.70;0.65;;;17.60;58.40;;;;;;5041139;28;20041;-58
2022/02/04 11:09:33;;;;;;;1.80;0.80;;;17.50;58.50;;;;;;4985400;28;20025;-59
2022/02/04 11:21:46;;;;;;;1.42;0.70;;;17.50;58.60;;;;;;5027383;28;20040;-55
2022/02/04 11:34:15;;;;;;;1.88;0.82;;;17.60;58.90;;;;;;5044865;28;20300;-58
2022/02/04 11:51:51;;;;;;;2.10;0.90;;;17.50;58.80;;;;;;5044911;28;19921;-59
2022/02/04 11:57:03;;;;;;;7.18;1.55;;;17.60;58.70;;;;;;5045207;28;20025;-61
2022/02/04 11:59:52;;;;;;;3.40;1.27;;;17.60;58.70;;;;;;5041999;28;20039;-60
2022/02/04 12:02:26;;;;;;;1.77;1.25;;;17.60;58.60;;;;;;5016504;28;20025;-59
2022/02/04 12:05:15;;;;;;;1.43;0.90;;;17.50;58.40;;;;;;5044230;28;20086;-58
2022/02/04 12:07:51;;;;;;;2.05;1.10;;;17.50;58.40;;;;;;5045181;28;20258;-62
2022/02/04 12:10:17;;;;;;;1.75;0.90;;;17.60;58.40;;;;;;5026117;28;20647;-60
2022/02/04 12:13:06;;;;;;;2.35;1.05;;;17.50;58.40;;;;;;5044485;28;20040;-56
2022/02/04 12:15:35;;;;;;;2.08;1.55;;;17.50;58.40;;;;;;5045180;28;20474;-58
2022/02/04 12:18:11;;;;;;;2.15;1.30;;;17.60;58.40;;;;;;5042151;28;20044;-57
2022/02/04 12:20:55;;;;;;;1.35;0.98;;;17.50;58.30;;;;;;5044401;28;20044;-57
2022/02/04 12:23:26;;;;;;;4.05;0.90;;;17.50;58.30;;;;;;5044365;28;20029;-55
2022/02/04 12:26:16;;;;;;;1.23;0.77;;;17.50;58.30;;;;;;5044662;28;20416;-60
2022/02/04 12:28:51;;;;;;;2.70;0.70;;;17.50;58.30;;;;;;5020931;28;20029;-59
2022/02/04 12:31:30;;;;;;;1.27;0.70;;;17.60;58.30;;;;;;5044639;28;20061;-62
2022/02/04 12:34:01;;;;;;;1.70;0.70;;;17.50;58.20;;;;;;5023162;28;20033;-57
2022/02/04 12:36:27;;;;;;;3.15;0.80;;;17.50;58.20;;;;;;5041825;28;20037;-60
2022/02/04 12:38:54;;;;;;;1.80;0.75;;;17.50;58.10;;;;;;5042740;28;20032;-58
2022/02/04 12:41:30;;;;;;;1.85;1.00;;;17.60;58.20;;;;;;5009117;28;20036;-60
2022/02/04 12:43:58;;;;;;;1.05;0.70;;;17.50;58.10;;;;;;5044118;28;20033;-61
2022/02/04 12:46:23;;;;;;;0.85;0.68;;;17.50;58.10;;;;;;5044160;28;20028;-54
2022/02/04 12:49:22;;;;;;;2.08;0.90;;;17.50;58.10;;;;;;5043734;28;20040;-56
2022/02/04 12:54:25;;;;;;;0.75;0.50;;;17.50;58.10;;;;;;5040576;28;20033;-54
2022/02/04 13:00:00;;;;;;;1.77;0.80;;;17.50;58.60;;;;;;5015640;28;20037;-59
2022/02/04 13:02:47;;;;;;;1.67;0.85;;;17.50;58.50;;;;;;5042611;28;20037;-58
2022/02/04 13:10:39;;;;;;;2.05;0.50;;;17.50;59.70;;;;;;5043523;28;20025;-57
2022/02/04 13:13:06;;;;;;;2.95;0.82;;;17.50;59.80;;;;;;5024547;28;20041;-59
2022/02/04 13:15:35;;;;;;;1.20;0.65;;;17.50;59.90;;;;;;5042130;28;20714;-58
2022/02/04 13:18:05;;;;;;;4.72;0.80;;;17.50;59.80;;;;;;5042335;28;20414;-55
2022/02/04 13:20:30;;;;;;;1.10;0.63;;;17.50;59.60;;;;;;5038854;28;20939;-54
2022/02/04 13:22:58;;;;;;;0.73;0.45;;;17.50;59.60;;;;;;5024690;28;20037;-59
2022/02/04 13:25:29;;;;;;;1.23;0.45;;;17.50;59.50;;;;;;5043104;28;20409;-56
2022/02/04 13:28:05;;;;;;;1.92;0.80;;;17.50;59.50;;;;;;5025317;28;20039;-59
2022/02/04 13:30:33;;;;;;;0.70;0.60;;;17.50;59.40;;;;;;5042783;28;20165;-55
2022/02/04 13:32:59;;;;;;;5.25;0.65;;;17.50;59.80;;;;;;5043216;28;20115;-60
2022/02/04 13:35:36;;;;;;;3.17;0.70;;;17.50;59.30;;;;;;5024942;28;20087;-56
2022/02/04 13:38:10;;;;;;;1.33;0.57;;;17.50;59.40;;;;;;5038943;28;20052;-61
2022/02/04 13:43:59;;;;;;;1.65;0.60;;;17.50;59.30;;;;;;5038164;28;20087;-57
2022/02/04 13:46:49;;;;;;;1.50;0.85;;;17.50;59.40;;;;;;5043070;28;20031;-54
2022/02/04 13:52:16;;;;;;;1.02;0.50;;;17.50;59.30;;;;;;5040046;28;20044;-60
2022/02/04 13:54:56;;;;;;;0.50;0.40;;;17.50;59.30;;;;;;5043122;28;20310;-62
2022/02/04 13:57:29;;;;;;;1.48;0.60;;;17.50;59.20;;;;;;5038304;28;20040;-61
2022/02/04 14:01:07;;;;;;;2.42;0.50;;;17.50;59.30;;;;;;5008287;28;20051;-60
2022/02/04 14:03:34;;;;;;;0.95;0.50;;;17.50;59.30;;;;;;5035620;28;20021;-60
2022/02/04 14:06:04;;;;;;;1.58;0.45;;;17.40;59.30;;;;;;5029058;28;20041;-61
2022/02/04 14:08:34;;;;;;;4.18;0.85;;;17.50;59.30;;;;;;5038018;28;20036;-60
2022/02/04 14:11:04;;;;;;;0.73;0.50;;;17.50;59.30;;;;;;5042014;28;20086;-61
2022/02/04 14:13:29;;;;;;;0.80;0.45;;;17.50;59.40;;;;;;5025235;28;20530;-60
2022/02/04 14:15:58;;;;;;;0.77;0.50;;;17.50;59.40;;;;;;5042101;28;20063;-58
2022/02/04 14:18:24;;;;;;;0.57;0.43;;;17.50;59.40;;;;;;5041566;28;20033;-56
2022/02/04 14:20:50;;;;;;;2.05;0.40;;;17.50;59.40;;;;;;5041096;28;20390;-61
2022/02/04 14:23:15;;;;;;;0.70;0.30;;;17.50;59.30;;;;;;5025126;28;20108;-54
2022/02/04 14:26:03;;;;;;;0.50;0.40;;;17.50;59.30;;;;;;5024229;28;20033;-55
2022/02/04 14:28:47;;;;;;;0.70;0.50;;;17.50;59.30;;;;;;5023542;28;20431;-61
2022/02/04 14:31:22;;;;;;;0.50;0.40;;;17.50;59.40;;;;;;5042375;28;20737;-59
2022/02/04 14:36:27;;;;;;;2.70;0.52;;;17.50;59.40;;;;;;5042255;28;20106;-61
2022/02/04 14:50:21;;;;;;;0.57;0.50;;;17.40;59.40;;;;;;5017828;28;20075;-60
2022/02/04 15:00:59;;;;;;;0.70;0.60;;;17.50;59.40;;;;;;5040688;28;20109;-64
2022/02/04 15:03:34;;;;;;;0.50;0.50;;;17.50;59.30;;;;;;5041567;28;20033;-58
2022/02/04 15:06:05;;;;;;;0.87;0.43;;;17.50;59.30;;;;;;5041564;28;20040;-58
2022/02/04 15:08:35;;;;;;;0.35;0.35;;;17.40;59.30;;;;;;5041336;28;20033;-63
2022/02/04 15:11:03;;;;;;;1.20;0.60;;;17.50;59.40;;;;;;5041370;28;20203;-60
2022/02/04 15:13:31;;;;;;;0.68;0.60;;;17.50;59.40;;;;;;5041179;28;20049;-59
2022/02/04 15:15:56;;;;;;;1.02;0.40;;;17.40;59.30;;;;;;5037186;28;20658;-58
2022/02/04 15:18:22;;;;;;;0.93;0.60;;;17.40;59.30;;;;;;5023077;28;20036;-63
2022/02/04 15:20:48;;;;;;;1.45;0.40;;;17.50;59.30;;;;;;5023416;28;20036;-59
2022/02/04 15:23:15;;;;;;;1.15;0.40;;;17.50;59.20;;;;;;5041037;28;20029;-63
2022/02/04 15:25:41;;;;;;;1.17;0.40;;;17.50;59.20;;;;;;5041320;28;20048;-57
2022/02/04 15:30:36;;;;;;;0.75;0.40;;;17.40;59.30;;;;;;5040728;28;20120;-59
2022/02/04 15:33:01;;;;;;;1.08;0.60;;;17.40;59.90;;;;;;5023913;28;20029;-60
2022/02/04 15:35:29;;;;;;;1.08;0.50;;;17.40;59.30;;;;;;5041442;28;20477;-58
2022/02/04 15:37:54;;;;;;;0.40;0.30;;;17.40;59.30;;;;;;5023483;28;20055;-63
2022/02/04 15:40:20;;;;;;;0.30;0.30;;;17.40;59.30;;;;;;5039992;28;20029;-59
2022/02/04 15:42:54;;;;;;;0.70;0.40;;;17.50;59.40;;;;;;5042054;28;20312;-57
2022/02/04 15:50:44;;;;;;;1.52;0.70;;;17.40;59.30;;;;;;5040445;28;20029;-59
2022/02/04 15:58:21;;;;;;;0.73;0.50;;;17.40;59.40;;;;;;5041854;28;20029;-59
2022/02/04 16:03:36;;;;;;;0.80;0.70;;;17.40;59.40;;;;;;5044681;28;20021;-58
2022/02/04 16:06:06;;;;;;;0.60;0.40;;;17.40;59.40;;;;;;5042464;28;20033;-58
2022/02/04 16:08:31;;;;;;;0.82;0.60;;;17.40;60.40;;;;;;5044129;28;20694;-58
2022/02/04 16:11:13;;;;;;;2.47;0.30;;;17.40;59.80;;;;;;5044969;28;20037;-56
2022/02/04 16:13:46;;;;;;;0.65;0.30;;;17.40;59.70;;;;;;5044313;28;20026;-61
2022/02/04 16:18:58;;;;;;;1.33;0.73;;;17.40;59.90;;;;;;5022979;28;20029;-61
2022/02/04 16:21:34;;;;;;;2.17;0.40;;;17.50;59.80;;;;;;5044358;28;20032;-59
2022/02/04 16:24:19;;;;;;;0.95;0.60;;;17.40;59.70;;;;;;5044042;28;20098;-61
2022/02/04 16:29:19;;;;;;;2.30;0.50;;;17.50;59.60;;;;;;5043824;28;20449;-63
2022/02/04 16:31:45;;;;;;;0.32;0.30;;;17.50;59.60;;;;;;5044871;28;20055;-62
2022/02/04 16:34:12;;;;;;;0.65;0.50;;;17.50;59.50;;;;;;5043977;28;20021;-58
2022/02/04 16:36:39;;;;;;;0.88;0.50;;;17.50;59.50;;;;;;5044262;28;20036;-60
2022/02/04 16:39:06;;;;;;;0.80;0.40;;;17.50;59.50;;;;;;5026293;28;20212;-61
2022/02/04 16:41:44;;;;;;;0.85;0.40;;;17.50;59.40;;;;;;5044052;28;20048;-57
2022/02/04 16:44:10;;;;;;;1.73;0.50;;;17.50;59.40;;;;;;5040366;28;20039;-56
2022/02/04 16:46:35;;;;;;;0.50;0.40;;;17.50;59.40;;;;;;5043923;28;20014;-60
2022/02/04 16:49:01;;;;;;;0.52;0.22;;;17.50;59.40;;;;;;5043665;28;20098;-56
2022/02/04 16:51:26;;;;;;;0.52;0.47;;;17.50;59.40;;;;;;5044081;28;20021;-56
2022/02/04 16:53:52;;;;;;;0.38;0.38;;;17.50;59.40;;;;;;5043906;28;20059;-59
2022/02/04 16:56:17;;;;;;;0.60;0.43;;;17.50;59.40;;;;;;5044291;28;20017;-61
2022/02/04 16:58:43;;;;;;;0.57;0.40;;;17.50;59.30;;;;;;5043083;28;20033;-59
2022/02/04 17:01:08;;;;;;;1.20;0.50;;;17.50;59.30;;;;;;5025207;28;20032;-57
2022/02/04 17:03:34;;;;;;;1.63;0.38;;;17.50;59.40;;;;;;5042902;28;20033;-63
2022/02/04 17:06:01;;;;;;;0.60;0.40;;;17.50;59.30;;;;;;5043365;28;20131;-59
2022/02/04 17:08:34;;;;;;;0.60;0.50;;;17.50;59.30;;;;;;5042746;28;20025;-58
2022/02/04 17:11:08;;;;;;;1.45;0.40;;;17.50;59.20;;;;;;5042941;28;20060;-62
2022/02/04 17:13:34;;;;;;;0.70;0.40;;;17.50;59.20;;;;;;5043268;28;20029;-58
2022/02/04 17:15:59;;;;;;;0.70;0.40;;;17.50;59.20;;;;;;5043200;28;20439;-57
2022/02/04 17:18:25;;;;;;;0.50;0.30;;;17.50;59.20;;;;;;5043299;28;20029;-58
2022/02/04 17:20:50;;;;;;;0.55;0.47;;;17.50;59.10;;;;;;5043252;28;20059;-60
2022/02/04 17:23:26;;;;;;;0.40;0.40;;;17.50;59.20;;;;;;5043670;28;20021;-61
2022/02/04 17:25:53;;;;;;;;;;;17.50;59.20;;;;;;5043653;28;20749;-59
2022/02/04 17:28:19;;;;;;;0.95;0.47;;;17.50;59.10;;;;;;5025484;28;20493;-59
2022/02/04 17:30:45;;;;;;;0.70;0.50;;;17.50;59.10;;;;;;5043265;28;20087;-59
2022/02/04 17:33:10;;;;;;;1.45;0.52;;;17.50;59.10;;;;;;5043006;28;20057;-58
2022/02/04 17:35:36;;;;;;;0.70;0.30;;;17.50;59.00;;;;;;5043036;28;20047;-59
2022/02/04 17:38:01;;;;;;;0.50;0.40;;;17.50;59.00;;;;;;5043235;28;20044;-60
2022/02/04 17:40:27;;;;;;;0.73;0.55;;;17.50;59.00;;;;;;5042250;28;20410;-58
2022/02/04 17:42:53;;;;;;;0.50;0.50;;;17.50;59.00;;;;;;5043264;28;20029;-57
2022/02/04 17:45:21;;;;;;;0.40;0.40;;;17.50;58.90;;;;;;5043083;28;20033;-59
2022/02/04 17:47:55;;;;;;;0.47;0.45;;;17.50;58.90;;;;;;5000744;28;20045;-59
2022/02/04 17:50:30;;;;;;;0.57;0.40;;;17.50;58.90;;;;;;5041806;28;20021;-61
2022/02/04 17:53:04;;;;;;;0.52;0.40;;;17.50;59.00;;;;;;5043198;28;20033;-62
2022/02/04 17:55:34;;;;;;;0.95;0.40;;;17.50;58.90;;;;;;5026668;28;20029;-60
2022/02/04 17:58:21;;;;;;;0.47;0.40;;;17.50;58.90;;;;;;5042584;28;20040;-62
2022/02/04 18:06:13;;;;;;;0.50;0.50;;;17.50;59.60;;;;;;5041597;28;20037;-61
2022/02/04 18:08:38;;;;;;;0.30;0.30;;;17.50;58.90;;;;;;5028243;28;20056;-57
2022/02/04 18:11:05;;;;;;;0.52;0.50;;;17.50;58.90;;;;;;5042230;28;20025;-62
2022/02/04 18:13:31;;;;;;;0.73;0.43;;;17.50;58.90;;;;;;5042563;28;20036;-60
2022/02/04 18:15:57;;;;;;;0.47;0.40;;;17.50;59.00;;;;;;5043026;28;20029;-57
2022/02/04 18:18:23;;;;;;;0.47;0.40;;;17.50;59.00;;;;;;5042515;28;20033;-60
2022/02/04 18:20:49;;;;;;;0.73;0.40;;;17.50;59.20;;;;;;5025624;28;20048;-62
2022/02/04 18:23:19;;;;;;;2.20;0.30;;;17.50;59.30;;;;;;5024371;28;20052;-57
2022/02/04 18:25:45;;;;;;;2.92;0.50;;;17.50;59.20;;;;;;5042874;28;20032;-60
2022/02/04 18:28:11;;;;;;;0.40;0.40;;;17.50;59.30;;;;;;5042413;28;20561;-61
2022/02/04 18:30:36;;;;;;;2.72;0.52;;;17.50;59.40;;;;;;5038555;28;20075;-58
2022/02/04 18:33:02;;;;;;;1.00;0.50;;;17.50;59.40;;;;;;5041771;28;20095;-61
2022/02/04 18:35:28;;;;;;;1.73;0.55;;;17.50;59.40;;;;;;5040991;28;20032;-63
2022/02/04 18:38:15;;;;;;;4.35;0.52;;;17.50;59.40;;;;;;5041745;28;20041;-55
2022/02/04 18:40:58;;;;;;;0.47;0.40;;;17.50;59.40;;;;;;5041638;28;20042;-60
2022/02/04 18:43:40;;;;;;;0.73;0.57;;;17.50;59.40;;;;;;5041128;28;20044;-57
2022/02/04 18:48:43;;;;;;;0.55;0.45;;;17.50;59.40;;;;;;5041953;28;20040;-57
2022/02/04 18:51:38;;;;;;;1.17;0.30;;;17.50;59.40;;;;;;5025871;28;20655;-58